createdAt,value
2023-04-03T00:00:52.332Z,3.10
2023-04-03T00:03:21.108Z,3.67
2023-04-03T00:05:49.182Z,3.25
2023-04-03T00:08:17.167Z,3.47
2023-04-03T00:10:45.207Z,3.60
2023-04-03T00:13:13.327Z,3.83
2023-04-03T00:15:42.434Z,3.55
2023-04-03T00:18:11.965Z,3.90
2023-04-03T00:20:40.089Z,3.03
2023-04-03T00:23:08.101Z,3.78
2023-04-03T00:25:36.262Z,3.60
2023-04-03T00:28:05.257Z,3.10
2023-04-03T00:30:33.703Z,3.80
2023-04-03T00:33:02.408Z,3.55
2023-04-03T00:35:32.469Z,3.17
2023-04-03T00:38:00.514Z,3.38
2023-04-03T00:40:29.694Z,3.60
2023-04-03T00:43:00.667Z,3.20
2023-04-03T00:45:34.331Z,3.38
2023-04-03T00:48:06.642Z,4.18
2023-04-03T00:50:39.407Z,3.80
2023-04-03T00:53:11.253Z,3.10
2023-04-03T00:55:40.413Z,3.40
2023-04-03T00:58:09.947Z,3.40
2023-04-03T01:00:40.795Z,3.60
2023-04-03T01:03:08.899Z,3.45
2023-04-03T01:05:40.082Z,3.70
2023-04-03T01:08:08.547Z,3.40
2023-04-03T01:10:36.828Z,3.03
2023-04-03T01:13:21.096Z,3.20
2023-04-03T01:15:49.251Z,3.45
2023-04-03T01:18:17.243Z,3.10
2023-04-03T01:21:20.512Z,3.50
2023-04-03T01:24:10.254Z,3.20
2023-04-03T01:26:38.455Z,3.42
2023-04-03T01:29:06.828Z,3.25
2023-04-03T01:31:48.848Z,3.42
2023-04-03T01:34:16.894Z,3.35
2023-04-03T01:36:44.981Z,3.20
2023-04-03T01:39:13.131Z,3.92
2023-04-03T01:41:41.364Z,3.20
2023-04-03T01:44:15.308Z,3.15
2023-04-03T01:46:44.681Z,3.25
2023-04-03T01:49:12.703Z,3.45
2023-04-03T01:51:40.686Z,3.15
2023-04-03T01:54:08.726Z,3.20
2023-04-03T01:56:36.718Z,3.67
2023-04-03T01:59:04.864Z,3.30
2023-04-03T02:01:32.950Z,3.00
2023-04-03T02:04:02.374Z,3.53
2023-04-03T02:06:30.864Z,3.88
2023-04-03T02:08:59.101Z,3.42
2023-04-03T02:11:27.074Z,3.20
2023-04-03T02:13:55.091Z,3.50
2023-04-03T02:16:23.136Z,3.25
2023-04-03T02:18:51.499Z,3.55
2023-04-03T02:21:21.163Z,3.22
2023-04-03T02:23:49.834Z,3.47
2023-04-03T02:26:18.859Z,3.35
2023-04-03T02:28:47.441Z,3.22
2023-04-03T02:31:15.831Z,3.25
2023-04-03T02:33:46.104Z,3.60
2023-04-03T02:36:16.566Z,3.20
2023-04-03T02:38:50.539Z,4.18
2023-04-03T02:41:18.616Z,3.17
2023-04-03T02:43:46.720Z,3.65
2023-04-03T02:46:16.043Z,5.10
2023-04-03T02:48:44.708Z,3.00
2023-04-03T02:51:12.650Z,3.00
2023-04-03T02:53:40.610Z,3.17
2023-04-03T02:56:18.077Z,3.17
2023-04-03T02:58:46.338Z,3.05
2023-04-03T03:01:14.887Z,3.00
2023-04-03T03:03:43.130Z,2.50
2023-04-03T03:06:13.265Z,3.28
2023-04-03T03:08:42.869Z,2.70
2023-04-03T03:11:11.656Z,3.40
2023-04-03T03:13:41.352Z,3.28
2023-04-03T03:16:09.562Z,2.90
2023-04-03T03:18:37.922Z,2.70
2023-04-03T03:21:06.724Z,2.60
2023-04-03T03:23:34.907Z,3.25
2023-04-03T03:26:04.894Z,2.95
2023-04-03T03:28:33.995Z,2.58
2023-04-03T03:31:03.733Z,3.22
2023-04-03T03:33:33.516Z,2.75
2023-04-03T03:36:01.991Z,2.42
2023-04-03T03:38:30.969Z,2.80
2023-04-03T03:41:00.642Z,2.70
2023-04-03T03:43:30.735Z,2.70
2023-04-03T03:45:59.284Z,2.58
2023-04-03T03:48:29.924Z,3.00
2023-04-03T03:50:58.164Z,2.63
2023-04-03T03:53:30.492Z,4.78
2023-04-03T03:56:02.594Z,3.17
2023-04-03T03:58:33.155Z,2.92
2023-04-03T04:01:03.377Z,3.38
2023-04-03T04:03:34.440Z,3.15
2023-04-03T04:06:03.451Z,3.30
2023-04-03T04:08:31.713Z,3.08
2023-04-03T04:10:59.780Z,4.60
2023-04-03T04:13:27.822Z,3.88
2023-04-03T04:15:56.030Z,3.25
2023-04-03T04:18:24.899Z,3.70
2023-04-03T04:20:54.257Z,3.22
2023-04-03T04:23:23.527Z,3.33
2023-04-03T04:25:52.699Z,4.00
2023-04-03T04:28:21.345Z,3.47
2023-04-03T04:30:52.181Z,4.60
2023-04-03T04:33:21.240Z,3.40
2023-04-03T04:35:49.936Z,3.80
2023-04-03T04:38:21.647Z,4.35
2023-04-03T04:40:50.874Z,3.40
2023-04-03T04:43:19.419Z,4.20
2023-04-03T04:45:50.034Z,4.18
2023-04-03T04:48:21.017Z,4.10
2023-04-03T04:50:48.960Z,4.22
2023-04-03T04:53:16.858Z,5.25
2023-04-03T04:55:46.272Z,5.05
2023-04-03T04:58:14.264Z,4.55
2023-04-03T05:00:43.223Z,4.90
2023-04-03T05:03:12.579Z,4.72
2023-04-03T05:05:41.022Z,4.68
2023-04-03T05:08:09.957Z,4.88
2023-04-03T05:10:41.773Z,3.85
2023-04-03T05:13:11.216Z,4.60
2023-04-03T05:15:39.752Z,4.55
2023-04-03T05:18:08.047Z,4.35
2023-04-03T05:20:36.529Z,4.35
2023-04-03T05:23:04.650Z,5.03
2023-04-03T05:25:35.910Z,4.32
2023-04-03T05:28:04.778Z,5.10
2023-04-03T05:30:34.207Z,5.60
2023-04-03T05:33:04.994Z,4.85
2023-04-03T05:35:42.307Z,6.15
2023-04-03T05:38:13.742Z,4.57
2023-04-03T05:40:42.351Z,4.80
2023-04-03T05:43:10.618Z,4.50
2023-04-03T05:45:43.659Z,4.60
2023-04-03T05:48:13.750Z,4.65
2023-04-03T05:50:43.391Z,4.40
2023-04-03T05:53:20.880Z,4.70
2023-04-03T05:55:48.974Z,4.50
2023-04-03T05:58:17.405Z,4.60
2023-04-03T06:00:49.421Z,5.60
2023-04-03T06:03:18.802Z,6.80
2023-04-03T06:05:47.348Z,6.00
2023-04-03T06:08:15.611Z,5.97
2023-04-03T06:10:43.645Z,5.00
2023-04-03T06:13:11.659Z,5.25
2023-04-03T06:15:40.669Z,5.30
2023-04-03T06:18:11.967Z,4.35
2023-04-03T06:20:40.235Z,4.88
2023-04-03T06:23:08.666Z,4.82
2023-04-03T06:25:36.884Z,5.10
2023-04-03T06:28:04.874Z,4.95
2023-04-03T06:30:32.773Z,5.18
2023-04-03T06:33:01.824Z,5.53
2023-04-03T06:35:31.491Z,5.25
2023-04-03T06:37:59.485Z,5.50
2023-04-03T06:40:28.257Z,5.43
2023-04-03T06:42:56.209Z,5.70
2023-04-03T06:45:26.497Z,5.50
2023-04-03T06:47:54.497Z,5.50
2023-04-03T06:50:22.513Z,6.00
2023-04-03T06:52:51.830Z,6.15
2023-04-03T06:55:19.923Z,10.18
2023-04-03T06:57:48.139Z,6.93
2023-04-03T07:00:18.696Z,6.47
2023-04-03T07:02:46.726Z,6.05
2023-04-03T07:05:14.769Z,5.95
2023-04-03T07:07:42.693Z,6.00
2023-04-03T07:10:12.293Z,5.72
2023-04-03T07:12:40.588Z,6.35
2023-04-03T07:15:10.103Z,5.25
2023-04-03T07:17:38.043Z,4.75
2023-04-03T07:20:07.263Z,5.05
2023-04-03T07:22:35.277Z,5.57
2023-04-03T07:25:03.488Z,5.05
2023-04-03T07:27:32.876Z,4.53
2023-04-03T07:30:00.962Z,5.43
2023-04-03T07:32:29.011Z,4.30
2023-04-03T07:34:57.110Z,3.70
2023-04-03T07:37:25.095Z,4.10
2023-04-03T07:39:53.176Z,3.50
2023-04-03T07:42:21.419Z,3.17
2023-04-03T07:44:50.668Z,3.22
2023-04-03T07:47:19.106Z,3.40
2023-04-03T07:49:47.064Z,3.10
2023-04-03T07:52:15.722Z,2.60
2023-04-03T07:54:43.832Z,3.27
2023-04-03T07:57:11.808Z,2.87
2023-04-03T07:59:40.684Z,2.38
2023-04-03T08:02:11.550Z,3.13
2023-04-03T08:04:39.834Z,2.60
2023-04-03T08:07:07.861Z,2.90
2023-04-03T08:09:35.796Z,2.47
2023-04-03T08:12:03.740Z,2.80
2023-04-03T08:14:35.317Z,2.43
2023-04-03T08:17:05.483Z,2.17
2023-04-03T08:19:34.867Z,1.93
2023-04-03T08:22:03.986Z,2.20
2023-04-03T08:24:32.096Z,1.93
2023-04-03T08:27:00.139Z,2.10
2023-04-03T08:29:28.406Z,2.70
2023-04-03T08:31:56.336Z,2.87
2023-04-03T08:34:24.772Z,1.93
2023-04-03T08:36:54.001Z,2.10
2023-04-03T08:39:22.331Z,1.50
2023-04-03T08:41:50.420Z,1.60
2023-04-03T08:44:26.970Z,3.03
2023-04-03T08:47:04.101Z,1.47
2023-04-03T08:49:35.707Z,1.50
2023-04-03T08:52:09.979Z,0.90
2023-04-03T08:54:43.326Z,1.20
2023-04-03T08:57:14.328Z,1.27
2023-04-03T08:59:42.924Z,1.00
2023-04-03T09:02:28.322Z,1.00
2023-04-03T09:04:56.651Z,1.73
2023-04-03T09:07:34.167Z,1.60
2023-04-03T09:10:04.107Z,5.83
2023-04-03T09:12:40.116Z,2.27
2023-04-03T09:15:20.061Z,1.40
2023-04-03T09:18:02.330Z,1.60
2023-04-03T09:20:40.729Z,2.67
2023-04-03T09:23:19.366Z,1.50
2023-04-03T09:25:47.852Z,1.20
2023-04-03T09:28:16.182Z,2.30
2023-04-03T09:30:44.132Z,2.20
2023-04-03T09:33:13.389Z,1.30
2023-04-03T09:35:48.745Z,1.27
2023-04-03T09:38:22.008Z,2.50
2023-04-03T09:40:52.228Z,1.90
2023-04-03T09:43:27.058Z,1.30
2023-04-03T09:45:56.613Z,1.60
2023-04-03T09:48:26.244Z,1.10
2023-04-03T09:51:00.615Z,2.27
2023-04-03T09:53:32.942Z,1.93
2023-04-03T09:56:04.277Z,1.30
2023-04-03T09:58:46.900Z,1.30
2023-04-03T10:01:28.532Z,1.07
2023-04-03T10:04:12.072Z,1.20
2023-04-03T10:06:47.758Z,1.73
2023-04-03T10:09:23.549Z,1.20
2023-04-03T10:12:06.761Z,1.50
2023-04-03T10:14:37.022Z,1.50
2023-04-03T10:17:15.310Z,1.10
2023-04-03T10:19:47.822Z,2.00
2023-04-03T10:22:29.458Z,1.40
2023-04-03T10:25:06.497Z,2.03
2023-04-03T10:27:41.857Z,1.80
2023-04-03T10:30:30.027Z,1.33
2023-04-03T10:33:11.189Z,1.90
2023-04-03T10:35:50.751Z,1.80
2023-04-03T10:38:26.039Z,1.17
2023-04-03T10:41:01.964Z,5.97
2023-04-03T10:43:37.436Z,5.30
2023-04-03T10:46:11.477Z,3.40
2023-04-03T10:48:53.741Z,3.77
2023-04-03T10:51:29.922Z,9.60
2023-04-03T10:54:02.713Z,20.73
2023-04-03T10:56:40.982Z,6.07
2023-04-03T10:59:23.071Z,11.13
2023-04-03T11:01:55.853Z,3.80
2023-04-03T11:04:28.019Z,4.50
2023-04-03T11:07:01.980Z,6.53
2023-04-03T11:09:32.411Z,1.40
2023-04-03T11:12:06.650Z,2.07
2023-04-03T11:14:36.667Z,1.60
2023-04-03T11:17:13.663Z,1.27
2023-04-03T11:19:47.238Z,1.70
2023-04-03T11:22:23.677Z,1.27
2023-04-03T11:25:00.834Z,1.40
2023-04-03T11:27:37.135Z,1.67
2023-04-03T11:30:09.163Z,1.40
2023-04-03T11:33:01.771Z,1.20
2023-04-03T11:35:30.605Z,1.40
2023-04-03T11:38:01.524Z,2.20
2023-04-03T11:40:33.738Z,1.50
2023-04-03T11:43:09.308Z,1.33
2023-04-03T11:45:40.216Z,1.50
2023-04-03T11:48:44.436Z,1.20
2023-04-03T11:51:43.748Z,1.83
2023-04-03T11:54:49.455Z,2.47
2023-04-03T11:57:46.986Z,1.60
2023-04-03T12:00:54.870Z,1.30
2023-04-03T12:03:56.882Z,1.50
2023-04-03T12:07:03.906Z,1.63
2023-04-03T12:09:59.985Z,2.03
2023-04-03T12:12:35.453Z,1.83
2023-04-03T12:15:39.419Z,2.40
2023-04-03T12:18:52.497Z,1.57
2023-04-03T12:21:22.666Z,2.00
2023-04-03T12:24:24.848Z,1.87
2023-04-03T12:27:04.095Z,2.13
2023-04-03T12:29:43.809Z,1.93
2023-04-03T12:32:22.018Z,1.80
2023-04-03T12:35:07.331Z,2.77
2023-04-03T12:38:18.219Z,2.03
2023-04-03T12:40:53.338Z,2.17
2023-04-03T12:43:48.790Z,2.00
2023-04-03T12:46:20.853Z,2.23
2023-04-03T12:48:51.960Z,1.80
2023-04-03T12:51:23.606Z,2.53
2023-04-03T12:53:57.476Z,1.90
2023-04-03T12:56:27.679Z,2.00
2023-04-03T12:58:58.363Z,1.97
2023-04-03T13:01:27.331Z,2.00
2023-04-03T13:03:57.700Z,2.20
2023-04-03T13:06:29.018Z,2.30
2023-04-03T13:09:01.181Z,2.50
2023-04-03T13:11:34.161Z,2.10
2023-04-03T13:14:04.448Z,2.67
2023-04-03T13:16:33.100Z,2.27
2023-04-03T13:19:01.760Z,2.93
2023-04-03T13:21:32.742Z,2.50
2023-04-03T13:24:14.743Z,2.37
2023-04-03T13:26:44.157Z,2.20
2023-04-03T13:29:29.944Z,2.50
2023-04-03T13:31:59.984Z,2.70
2023-04-03T13:34:30.221Z,2.30
2023-04-03T13:37:00.845Z,2.60
2023-04-03T13:39:32.016Z,2.60
2023-04-03T13:42:03.719Z,2.67
2023-04-03T13:44:35.694Z,2.40
2023-04-03T13:47:17.894Z,3.17
2023-04-03T13:49:48.080Z,2.23
2023-04-03T13:52:30.434Z,1.90
2023-04-03T13:55:05.816Z,2.57
2023-04-03T13:57:36.853Z,2.40
2023-04-03T14:00:27.784Z,2.63
2023-04-03T14:02:58.087Z,2.60
2023-04-03T14:05:27.656Z,2.40
2023-04-03T14:07:56.467Z,2.57
2023-04-03T14:10:25.988Z,2.27
2023-04-03T14:12:54.662Z,2.07
2023-04-03T14:15:25.754Z,2.27
2023-04-03T14:17:54.208Z,1.90
2023-04-03T14:20:26.774Z,2.60
2023-04-03T14:22:55.679Z,2.20
2023-04-03T14:25:26.663Z,2.43
2023-04-03T14:27:55.969Z,2.40
2023-04-03T14:30:26.889Z,2.30
2023-04-03T14:32:55.028Z,2.80
2023-04-03T14:35:23.737Z,2.57
2023-04-03T14:37:53.543Z,2.50
2023-04-03T14:40:25.587Z,2.90
2023-04-03T14:42:56.276Z,2.70
2023-04-03T14:45:25.752Z,2.30
2023-04-03T14:47:56.101Z,2.60
2023-04-03T14:50:26.576Z,2.57
2023-04-03T14:52:57.509Z,2.70
2023-04-03T14:55:26.649Z,2.30
2023-04-03T14:57:56.229Z,2.60
2023-04-03T15:00:24.972Z,3.10
2023-04-03T15:02:53.548Z,2.70
2023-04-03T15:05:21.829Z,2.87
2023-04-03T15:07:52.448Z,2.43
2023-04-03T15:10:24.557Z,2.63
2023-04-03T15:12:53.815Z,3.10
2023-04-03T15:15:24.575Z,2.63
2023-04-03T15:17:55.511Z,2.70
2023-04-03T15:20:25.005Z,2.40
2023-04-03T15:22:53.025Z,2.27
2023-04-03T15:25:21.023Z,2.90
2023-04-03T15:27:49.280Z,2.40
2023-04-03T15:30:19.233Z,2.43
2023-04-03T15:32:49.170Z,3.00
2023-04-03T15:35:17.454Z,3.43
2023-04-03T15:37:45.557Z,3.30
2023-04-03T15:40:13.870Z,2.67
2023-04-03T15:42:42.225Z,2.67
2023-04-03T15:45:11.175Z,2.53
2023-04-03T15:47:39.483Z,2.70
2023-04-03T15:50:10.056Z,2.60
2023-04-03T15:52:39.148Z,2.30
2023-04-03T15:55:08.128Z,3.17
2023-04-03T16:00:04.336Z,2.57
2023-04-03T16:02:35.928Z,3.10
2023-04-03T16:05:04.307Z,3.00
2023-04-03T16:07:33.746Z,2.80
2023-04-03T16:10:01.731Z,2.43
2023-04-03T16:12:29.811Z,3.10
2023-04-03T16:14:57.857Z,2.63
2023-04-03T16:17:26.856Z,2.80
2023-04-03T16:19:55.900Z,2.80
2023-04-03T16:22:25.870Z,2.70
2023-04-03T16:24:55.524Z,2.53
2023-04-03T16:27:28.343Z,3.10
2023-04-03T16:29:56.624Z,2.70
2023-04-03T16:32:25.497Z,2.80
2023-04-03T16:34:54.163Z,2.33
2023-04-03T16:37:22.663Z,2.80
2023-04-03T16:39:50.812Z,2.45
2023-04-03T16:42:20.295Z,2.50
2023-04-03T16:44:48.260Z,2.40
2023-04-03T16:47:20.872Z,2.67
2023-04-03T16:49:49.069Z,2.73
2023-04-03T16:52:17.215Z,2.83
2023-04-03T16:54:45.174Z,2.40
2023-04-03T16:57:13.725Z,2.50
2023-04-03T16:59:43.188Z,2.72
2023-04-03T17:02:11.124Z,2.70
2023-04-03T17:04:39.092Z,2.70
2023-04-03T17:07:07.154Z,3.05
2023-04-03T17:09:35.141Z,2.80
2023-04-03T17:12:03.771Z,2.70
2023-04-03T17:14:31.804Z,2.65
2023-04-03T17:17:01.239Z,2.45
2023-04-03T17:19:30.692Z,2.53
2023-04-03T17:21:58.861Z,3.00
2023-04-03T17:24:27.352Z,3.00
2023-04-03T17:26:55.330Z,2.50
2023-04-03T17:29:23.375Z,2.67
2023-04-03T17:31:51.279Z,2.63
2023-04-03T17:34:20.606Z,2.45
2023-04-03T17:36:48.819Z,2.92
2023-04-03T17:39:17.046Z,2.90
2023-04-03T17:41:45.832Z,2.45
2023-04-03T17:44:14.492Z,2.45
2023-04-03T17:46:42.724Z,2.30
2023-04-03T17:49:14.733Z,2.20
2023-04-03T17:51:44.092Z,2.20
2023-04-03T17:54:12.397Z,2.20
2023-04-03T17:56:41.767Z,2.20
2023-04-03T17:59:09.740Z,2.50
2023-04-03T18:01:37.807Z,2.45
2023-04-03T18:04:07.283Z,2.38
2023-04-03T18:06:39.650Z,2.25
2023-04-03T18:09:11.890Z,2.85
2023-04-03T18:11:40.288Z,2.80
2023-04-03T18:14:09.585Z,2.90
2023-04-03T18:16:37.688Z,2.38
2023-04-03T18:19:21.891Z,2.75
2023-04-03T18:21:52.195Z,2.80
2023-04-03T18:24:22.975Z,2.63
2023-04-03T18:26:54.886Z,2.50
2023-04-03T18:29:23.762Z,2.50
2023-04-03T18:31:54.930Z,2.45
2023-04-03T18:34:22.908Z,2.65
2023-04-03T18:36:52.326Z,2.10
2023-04-03T18:39:23.290Z,2.20
2023-04-03T18:41:53.328Z,2.20
2023-04-03T18:44:23.944Z,2.75
2023-04-03T18:46:53.642Z,2.42
2023-04-03T18:49:21.823Z,2.80
2023-04-03T18:51:50.661Z,2.65
2023-04-03T18:54:20.923Z,2.30
2023-04-03T18:56:50.446Z,3.00
2023-04-03T18:59:18.377Z,3.45
2023-04-03T19:01:46.497Z,2.55
2023-04-03T19:04:14.935Z,2.40
2023-04-03T19:06:43.043Z,2.50
2023-04-03T19:09:11.382Z,2.50
2023-04-03T19:11:39.450Z,2.30
2023-04-03T19:16:40.119Z,2.40
2023-04-03T19:19:08.117Z,2.47
2023-04-03T19:21:40.880Z,2.50
2023-04-03T19:24:09.696Z,2.33
2023-04-03T19:26:37.974Z,2.40
2023-04-03T19:29:06.268Z,2.50
2023-04-03T19:31:37.084Z,2.80
2023-04-03T19:34:05.639Z,2.67
2023-04-03T19:36:34.997Z,2.80
2023-04-03T19:39:03.018Z,2.75
2023-04-03T19:41:32.547Z,2.60
2023-04-03T19:44:00.765Z,2.92
2023-04-03T19:46:30.659Z,2.63
2023-04-03T19:49:00.042Z,2.47
2023-04-03T19:51:28.408Z,2.40
2023-04-03T19:53:56.365Z,4.15
2023-04-03T19:56:24.431Z,3.22
2023-04-03T19:58:54.302Z,2.97
2023-04-03T20:01:23.632Z,2.65
2023-04-03T20:03:51.736Z,2.58
2023-04-03T20:06:21.616Z,3.85
2023-04-03T20:08:49.620Z,2.80
2023-04-03T20:11:17.654Z,2.75
2023-04-03T20:13:45.689Z,2.40
2023-04-03T20:16:14.002Z,2.60
2023-04-03T20:18:42.508Z,2.08
2023-04-03T20:21:10.983Z,2.42
2023-04-03T20:23:40.409Z,2.65
2023-04-03T20:26:13.450Z,2.55
2023-04-03T20:28:44.972Z,2.10
2023-04-03T20:31:14.994Z,2.05
2023-04-03T20:33:43.572Z,2.10
2023-04-03T20:36:11.951Z,2.10
2023-04-03T20:38:41.366Z,2.03
2023-04-03T20:41:10.293Z,1.70
2023-04-03T20:43:40.022Z,1.80
2023-04-03T20:46:07.942Z,1.80
2023-04-03T20:48:36.509Z,2.30
2023-04-03T20:51:10.229Z,1.75
2023-04-03T20:53:38.600Z,2.30
2023-04-03T20:56:09.304Z,2.00
2023-04-03T20:58:39.471Z,2.28
2023-04-03T21:01:15.486Z,2.92
2023-04-03T21:03:43.706Z,2.53
2023-04-03T21:06:49.706Z,2.70
2023-04-03T21:09:56.594Z,2.45
2023-04-03T21:13:03.090Z,2.33
2023-04-03T21:15:51.240Z,2.28
2023-04-03T21:18:48.096Z,3.10
2023-04-03T21:21:22.444Z,2.60
2023-04-03T21:23:51.835Z,2.83
2023-04-03T21:26:21.760Z,2.47
2023-04-03T21:28:52.149Z,3.38
2023-04-03T21:31:21.348Z,2.15
2023-04-03T21:33:50.796Z,2.33
2023-04-03T21:36:18.780Z,2.05
2023-04-03T21:38:47.708Z,1.70
2023-04-03T21:41:15.673Z,2.00
2023-04-03T21:43:46.288Z,2.60
2023-04-03T21:46:14.278Z,2.38
2023-04-03T21:48:42.454Z,2.33
2023-04-03T21:51:11.727Z,1.55
2023-04-03T21:53:40.622Z,1.60
2023-04-03T21:56:08.919Z,2.15
2023-04-03T21:58:36.897Z,1.90
2023-04-03T22:01:12.811Z,1.77
2023-04-03T22:03:43.307Z,2.78
2023-04-03T22:06:13.713Z,2.10
2023-04-03T22:08:41.957Z,2.17
2023-04-03T22:11:12.927Z,2.15
2023-04-03T22:13:41.596Z,1.63
2023-04-03T22:16:11.184Z,2.20
2023-04-03T22:18:39.599Z,2.17
2023-04-03T22:21:08.846Z,2.08
2023-04-03T22:23:38.679Z,1.95
2023-04-03T22:26:08.526Z,1.83
2023-04-03T22:28:39.040Z,1.75
2023-04-03T22:31:09.058Z,2.10
2023-04-03T22:33:37.726Z,1.92
2023-04-03T22:36:06.874Z,2.08
2023-04-03T22:38:35.096Z,1.73
2023-04-03T22:41:06.499Z,2.05
2023-04-03T22:43:36.172Z,2.38
2023-04-03T22:46:05.317Z,1.92
2023-04-03T22:48:33.455Z,2.05
2023-04-03T22:51:01.612Z,2.00
2023-04-03T22:53:29.713Z,2.20
2023-04-03T22:55:58.728Z,2.40
2023-04-03T22:58:28.984Z,2.40
2023-04-03T23:01:06.010Z,2.03
2023-04-03T23:03:34.588Z,2.30
2023-04-03T23:06:03.487Z,1.75
2023-04-03T23:08:32.509Z,2.35
2023-04-03T23:11:01.483Z,2.72
2023-04-03T23:13:31.314Z,2.00
2023-04-03T23:16:01.002Z,2.38
2023-04-03T23:18:30.898Z,2.20
2023-04-03T23:21:01.239Z,2.30
2023-04-03T23:23:29.283Z,2.25
2023-04-03T23:25:59.032Z,2.65
2023-04-03T23:28:27.365Z,2.28
2023-04-03T23:31:00.348Z,2.17
2023-04-03T23:33:28.605Z,2.20
2023-04-03T23:35:58.436Z,2.17
2023-04-03T23:38:26.903Z,2.20
2023-04-03T23:40:54.896Z,1.90
2023-04-03T23:43:22.798Z,2.22
2023-04-03T23:45:50.744Z,2.00
2023-04-03T23:48:20.133Z,1.80
2023-04-03T23:50:48.059Z,1.88
2023-04-03T23:53:16.024Z,2.50
2023-04-03T23:55:44.017Z,2.10
2023-04-03T23:58:11.962Z,2.60
